createdAt,value
2019-04-14T00:01:02.219Z,23.55
2019-04-14T00:03:33.350Z,26.75
2019-04-14T00:06:04.810Z,26.05
2019-04-14T00:08:34.898Z,22.75
2019-04-14T00:11:04.177Z,23.02
2019-04-14T00:13:34.950Z,25.75
2019-04-14T00:16:05.340Z,23.87
2019-04-14T00:18:35.658Z,22.80
2019-04-14T00:21:06.580Z,22.90
2019-04-14T00:23:36.951Z,21.35
2019-04-14T00:26:31.762Z,22.75
2019-04-14T00:29:02.659Z,24.12
2019-04-14T00:31:32.848Z,24.30
2019-04-14T00:34:05.133Z,23.80
2019-04-14T00:36:48.384Z,24.63
2019-04-14T00:39:22.630Z,23.05
2019-04-14T00:42:02.129Z,24.15
2019-04-14T00:44:51.803Z,24.25
2019-04-14T00:47:26.688Z,25.62
2019-04-14T00:49:57.237Z,22.37
2019-04-14T00:52:27.683Z,24.37
2019-04-14T00:54:58.457Z,22.77
2019-04-14T00:57:29.014Z,24.63
2019-04-14T00:59:59.536Z,23.80
2019-04-14T01:02:29.720Z,24.10
2019-04-14T01:05:00.131Z,26.65
2019-04-14T01:07:30.513Z,25.68
2019-04-14T01:10:00.035Z,24.95
2019-04-14T01:12:29.982Z,26.07
2019-04-14T01:15:00.854Z,26.97
2019-04-14T01:17:31.243Z,26.95
2019-04-14T01:20:01.426Z,25.37
2019-04-14T01:22:33.444Z,23.92
2019-04-14T01:25:02.820Z,26.27
2019-04-14T01:27:32.116Z,26.40
2019-04-14T01:30:02.685Z,25.62
2019-04-14T01:32:32.615Z,27.00
2019-04-14T01:35:03.086Z,27.05
2019-04-14T01:37:33.333Z,25.88
2019-04-14T01:40:03.298Z,27.13
2019-04-14T01:42:33.403Z,26.40
2019-04-14T01:45:03.953Z,24.25
2019-04-14T01:47:33.441Z,26.12
2019-04-14T01:50:03.791Z,27.40
2019-04-14T01:52:38.480Z,26.65
2019-04-14T01:55:11.153Z,26.87
2019-04-14T01:57:42.170Z,25.95
2019-04-14T02:00:29.856Z,28.92
2019-04-14T02:02:59.718Z,24.63
2019-04-14T02:05:29.950Z,25.70
2019-04-14T02:08:00.157Z,27.95
2019-04-14T02:10:30.500Z,26.82
2019-04-14T02:13:00.641Z,27.67
2019-04-14T02:15:30.899Z,25.02
2019-04-14T02:18:00.980Z,28.05
2019-04-14T02:20:31.775Z,26.93
2019-04-14T02:23:01.834Z,29.20
2019-04-14T02:25:31.769Z,30.15
2019-04-14T02:28:02.224Z,28.60
2019-04-14T02:30:39.187Z,27.85
2019-04-14T02:33:31.873Z,27.93
2019-04-14T02:43:38.053Z,27.85
2019-04-14T02:46:05.897Z,30.43
2019-04-14T02:48:44.922Z,27.42
2019-04-14T02:53:44.227Z,29.18
2019-04-14T02:58:48.233Z,28.07
2019-04-14T03:01:15.043Z,30.72
2019-04-14T03:03:43.850Z,33.50
2019-04-14T03:06:26.052Z,30.57
2019-04-14T03:08:52.096Z,30.17
2019-04-14T03:11:21.179Z,30.70
2019-04-14T03:16:25.808Z,31.42
2019-04-14T03:18:57.789Z,32.78
2019-04-14T03:21:40.346Z,30.08
2019-04-14T03:24:32.767Z,32.05
2019-04-14T03:27:06.284Z,31.00
2019-04-14T03:32:23.538Z,31.05
2019-04-14T03:34:51.296Z,32.67
2019-04-14T03:39:46.545Z,33.18
2019-04-14T03:42:21.362Z,32.42
2019-04-14T03:47:19.998Z,30.80
2019-04-14T03:49:45.513Z,31.65
2019-04-14T03:52:22.139Z,31.35
2019-04-14T03:54:44.115Z,31.48
2019-04-14T03:56:57.684Z,32.45
2019-04-14T03:59:28.166Z,30.02
2019-04-14T04:01:58.605Z,30.57
2019-04-14T04:04:29.351Z,32.95
2019-04-14T04:06:59.619Z,31.90
2019-04-14T04:09:34.667Z,31.68
2019-04-14T04:12:05.186Z,30.60
2019-04-14T04:14:35.712Z,33.02
2019-04-14T04:17:16.814Z,33.45
2019-04-14T04:19:57.670Z,30.27
2019-04-14T04:22:32.587Z,35.50
2019-04-14T04:25:07.444Z,30.02
2019-04-14T04:27:41.906Z,35.05
2019-04-14T04:30:27.541Z,34.23
2019-04-14T04:33:02.298Z,31.17
2019-04-14T04:35:37.067Z,34.20
2019-04-14T04:38:11.766Z,34.83
2019-04-14T04:40:41.865Z,35.30
2019-04-14T04:43:12.479Z,33.00
2019-04-14T04:45:43.017Z,30.85
2019-04-14T04:48:13.161Z,32.23
2019-04-14T04:50:43.158Z,33.23
2019-04-14T04:53:13.655Z,31.87
2019-04-14T04:55:43.868Z,31.15
2019-04-14T04:58:13.310Z,32.58
2019-04-14T05:00:43.807Z,32.00
2019-04-14T05:03:14.560Z,33.18
2019-04-14T05:06:09.292Z,33.78
2019-04-14T05:08:41.323Z,31.27
2019-04-14T05:11:12.336Z,32.38
2019-04-14T05:13:42.997Z,31.10
2019-04-14T05:16:12.783Z,32.28
2019-04-14T05:18:42.180Z,33.30
2019-04-14T05:21:12.630Z,31.15
2019-04-14T05:23:43.155Z,30.50
2019-04-14T05:26:13.442Z,28.75
2019-04-14T05:28:43.799Z,33.42
2019-04-14T05:31:14.331Z,31.12
2019-04-14T05:33:44.769Z,30.40
2019-04-14T05:36:15.034Z,30.25
2019-04-14T05:38:45.004Z,31.30
2019-04-14T05:41:15.545Z,33.83
2019-04-14T05:43:52.036Z,32.33
2019-04-14T05:46:16.727Z,33.73
2019-04-14T05:48:47.031Z,31.82
2019-04-14T05:51:18.984Z,33.65
2019-04-14T05:53:48.082Z,29.65
2019-04-14T05:56:18.545Z,31.42
2019-04-14T05:58:49.231Z,30.57
2019-04-14T06:01:18.710Z,28.92
2019-04-14T06:03:49.577Z,32.28
2019-04-14T06:06:19.273Z,32.25
2019-04-14T06:08:48.821Z,31.87
2019-04-14T06:11:18.429Z,30.90
2019-04-14T06:13:48.037Z,30.48
2019-04-14T06:16:17.639Z,30.40
2019-04-14T06:18:47.248Z,30.62
2019-04-14T06:21:16.862Z,30.12
2019-04-14T06:23:46.468Z,28.10
2019-04-14T06:26:15.765Z,30.52
2019-04-14T06:28:45.076Z,29.92
2019-04-14T06:31:15.999Z,30.97
2019-04-14T06:33:56.131Z,28.07
2019-04-14T06:36:45.500Z,27.77
2019-04-14T06:39:23.488Z,28.30
2019-04-14T06:41:53.048Z,26.42
2019-04-14T06:44:22.358Z,28.83
2019-04-14T06:46:51.953Z,29.32
2019-04-14T06:49:21.243Z,27.82
2019-04-14T06:51:50.536Z,27.58
2019-04-14T06:54:20.168Z,25.55
2019-04-14T06:56:49.780Z,26.73
2019-04-14T06:59:19.380Z,26.33
2019-04-14T07:01:49.011Z,27.30
2019-04-14T07:04:18.601Z,26.48
2019-04-14T07:06:47.902Z,27.15
2019-04-14T07:09:17.257Z,25.45
2019-04-14T07:11:46.575Z,24.70
2019-04-14T07:14:15.903Z,23.77
2019-04-14T07:16:45.507Z,26.93
2019-04-14T07:19:14.796Z,25.62
2019-04-14T07:21:44.092Z,24.05
2019-04-14T07:24:13.446Z,25.68
2019-04-14T07:26:42.756Z,25.75
2019-04-14T07:29:14.622Z,25.12
2019-04-14T07:32:01.605Z,23.98
2019-04-14T07:34:47.729Z,24.37
2019-04-14T07:37:37.057Z,15.30
2019-04-14T07:40:11.708Z,22.22
2019-04-14T07:43:00.976Z,24.52
2019-04-14T07:45:34.829Z,22.95
2019-04-14T07:48:05.774Z,21.50
2019-04-14T07:50:39.639Z,21.87
2019-04-14T07:53:22.606Z,22.13
2019-04-14T07:55:56.409Z,22.30
2019-04-14T07:58:44.076Z,20.97
2019-04-14T08:01:15.307Z,21.42
2019-04-14T08:03:58.402Z,22.98
2019-04-14T08:06:28.156Z,20.95
2019-04-14T08:08:57.462Z,20.30
2019-04-14T08:11:26.756Z,20.70
2019-04-14T08:13:56.362Z,21.90
2019-04-14T08:16:25.660Z,20.02
2019-04-14T08:18:55.265Z,21.97
2019-04-14T08:21:24.565Z,21.52
2019-04-14T08:23:53.864Z,20.15
2019-04-14T08:26:23.151Z,19.82
2019-04-14T08:28:52.461Z,19.52
2019-04-14T08:31:21.820Z,19.20
2019-04-14T08:33:51.115Z,19.52
2019-04-14T08:36:20.487Z,19.67
2019-04-14T08:38:50.868Z,18.05
2019-04-14T08:41:20.161Z,20.95
2019-04-14T08:43:53.804Z,18.92
2019-04-14T08:46:24.741Z,18.55
2019-04-14T08:48:58.871Z,19.37
2019-04-14T08:51:35.759Z,19.40
2019-04-14T08:54:12.334Z,17.85
2019-04-14T08:56:49.229Z,18.77
2019-04-14T08:59:20.167Z,18.23
2019-04-14T09:02:00.160Z,19.42
2019-04-14T09:04:39.776Z,18.15
2019-04-14T09:07:13.933Z,19.10
2019-04-14T09:09:44.885Z,18.23
2019-04-14T09:12:16.287Z,18.90
2019-04-14T09:14:56.411Z,19.20
2019-04-14T09:17:17.077Z,18.80
2019-04-14T09:19:46.690Z,16.20
2019-04-14T09:22:15.975Z,18.13
2019-04-14T09:24:45.277Z,16.47
2019-04-14T09:27:14.582Z,16.00
2019-04-14T09:29:44.196Z,19.63
2019-04-14T09:32:14.117Z,17.20
2019-04-14T09:34:43.733Z,17.73
2019-04-14T09:37:13.111Z,17.17
2019-04-14T09:39:42.733Z,17.40
2019-04-14T09:42:12.032Z,17.40
2019-04-14T09:44:41.684Z,17.70
2019-04-14T09:47:11.349Z,17.03
2019-04-14T09:49:40.888Z,17.77
2019-04-14T09:52:10.199Z,17.00
2019-04-14T09:54:39.793Z,18.27
2019-04-14T09:57:09.382Z,15.40
2019-04-14T09:59:38.665Z,17.57
2019-04-14T10:02:07.968Z,15.70
2019-04-14T10:04:37.742Z,16.67
2019-04-14T10:07:07.061Z,14.60
2019-04-14T10:09:36.424Z,15.67
2019-04-14T10:12:05.733Z,14.57
2019-04-14T10:14:35.024Z,16.20
2019-04-14T10:17:04.334Z,16.07
2019-04-14T10:19:34.600Z,16.47
2019-04-14T10:22:03.899Z,15.30
2019-04-14T10:24:33.530Z,15.80
2019-04-14T10:27:02.845Z,15.63
2019-04-14T10:29:32.456Z,15.33
2019-04-14T10:32:01.999Z,14.90
2019-04-14T10:34:31.363Z,14.20
2019-04-14T10:37:00.658Z,15.00
2019-04-14T10:39:29.948Z,15.23
2019-04-14T10:41:59.261Z,14.43
2019-04-14T10:44:28.857Z,14.47
2019-04-14T10:46:58.161Z,15.23
2019-04-14T10:49:27.870Z,15.50
2019-04-14T10:51:57.175Z,14.87
2019-04-14T10:54:26.474Z,13.37
2019-04-14T10:56:55.785Z,14.37
2019-04-14T10:59:25.077Z,13.63
2019-04-14T11:01:54.423Z,12.77
2019-04-14T11:04:23.722Z,12.50
2019-04-14T11:06:58.912Z,14.27
2019-04-14T11:09:28.522Z,14.60
2019-04-14T11:11:58.128Z,16.63
2019-04-14T11:14:27.424Z,13.30
2019-04-14T11:16:56.937Z,12.63
2019-04-14T11:19:26.238Z,12.90
2019-04-14T11:21:55.845Z,12.43
2019-04-14T11:24:25.466Z,13.07
2019-04-14T11:26:54.754Z,12.03
2019-04-14T11:29:24.368Z,12.30
2019-04-14T11:31:55.609Z,12.93
2019-04-14T11:34:29.253Z,13.07
2019-04-14T11:37:00.192Z,12.30
2019-04-14T11:39:29.527Z,12.43
2019-04-14T11:41:59.056Z,11.93
2019-04-14T11:44:28.351Z,12.67
2019-04-14T11:46:57.647Z,14.23
2019-04-14T11:49:27.276Z,12.80
2019-04-14T11:51:56.555Z,12.43
2019-04-14T11:54:26.180Z,13.10
2019-04-14T11:56:55.478Z,11.87
2019-04-14T11:59:26.656Z,11.40
2019-04-14T12:02:14.447Z,12.20
2019-04-14T12:04:45.715Z,12.77
2019-04-14T12:07:25.371Z,12.20
2019-04-14T12:09:58.984Z,12.50
2019-04-14T12:12:28.412Z,13.10
2019-04-14T12:14:59.601Z,12.23
2019-04-14T12:17:29.111Z,11.73
2019-04-14T12:19:58.816Z,12.07
2019-04-14T12:22:28.183Z,12.80
2019-04-14T12:24:57.548Z,12.50
2019-04-14T12:27:27.244Z,12.27
2019-04-14T12:29:57.122Z,12.13
2019-04-14T12:32:27.078Z,15.27
2019-04-14T12:34:56.764Z,14.67
2019-04-14T12:37:26.585Z,11.93
2019-04-14T12:39:56.168Z,13.40
2019-04-14T12:42:29.816Z,13.87
2019-04-14T12:45:03.823Z,13.00
2019-04-14T12:47:40.729Z,13.87
2019-04-14T12:50:14.686Z,15.40
2019-04-14T12:52:43.989Z,14.27
2019-04-14T12:55:13.597Z,15.20
2019-04-14T12:57:53.595Z,14.13
2019-04-14T13:00:39.842Z,14.83
2019-04-14T13:03:09.141Z,12.93
2019-04-14T13:05:38.516Z,14.23
2019-04-14T13:08:07.823Z,15.03
2019-04-14T13:10:37.501Z,13.07
2019-04-14T13:13:07.209Z,13.77
2019-04-14T13:15:36.580Z,14.10
2019-04-14T13:18:05.960Z,13.70
2019-04-14T13:20:35.295Z,12.47
2019-04-14T13:23:04.972Z,13.20
2019-04-14T13:25:34.276Z,13.23
2019-04-14T13:28:03.900Z,13.50
2019-04-14T13:30:34.831Z,14.10
2019-04-14T13:33:04.653Z,14.13
2019-04-14T13:35:33.949Z,13.97
2019-04-14T13:38:03.261Z,13.57
2019-04-14T13:40:32.548Z,14.20
2019-04-14T13:43:01.861Z,14.43
2019-04-14T13:45:31.161Z,12.83
2019-04-14T13:48:00.764Z,13.07
2019-04-14T13:50:30.070Z,12.30
2019-04-14T13:52:59.359Z,13.83
2019-04-14T13:55:28.654Z,13.00
2019-04-14T13:57:57.962Z,13.13
2019-04-14T14:00:27.503Z,14.47
2019-04-14T14:02:56.882Z,13.13
2019-04-14T14:05:26.286Z,12.27
2019-04-14T14:07:55.643Z,13.50
2019-04-14T14:10:25.101Z,14.27
2019-04-14T14:12:58.981Z,13.03
2019-04-14T14:15:39.055Z,14.07
2019-04-14T14:18:13.071Z,13.83
2019-04-14T14:20:44.092Z,14.00
2019-04-14T14:23:17.592Z,12.50
2019-04-14T14:25:48.849Z,13.57
2019-04-14T14:28:18.161Z,16.00
2019-04-14T14:30:47.447Z,13.30
2019-04-14T14:33:16.756Z,13.27
2019-04-14T14:35:46.039Z,14.10
2019-04-14T14:38:15.344Z,13.63
2019-04-14T14:40:44.636Z,14.60
2019-04-14T14:43:13.945Z,14.30
2019-04-14T14:45:47.765Z,15.10
2019-04-14T14:48:34.269Z,14.27
2019-04-14T14:51:21.740Z,14.10
2019-04-14T14:53:51.047Z,14.70
2019-04-14T14:56:20.655Z,15.13
2019-04-14T14:58:49.977Z,14.70
2019-04-14T15:01:19.816Z,14.17
2019-04-14T15:03:49.529Z,13.60
2019-04-14T15:06:19.137Z,14.17
2019-04-14T15:08:48.444Z,12.90
2019-04-14T15:11:18.817Z,14.00
2019-04-14T15:13:48.372Z,12.27
2019-04-14T15:16:17.677Z,14.27
2019-04-14T15:18:47.013Z,14.10
2019-04-14T15:21:16.575Z,13.30
2019-04-14T15:23:45.876Z,14.50
2019-04-14T15:26:15.170Z,13.03
2019-04-14T15:28:44.489Z,11.57
2019-04-14T15:31:14.754Z,32.10
2019-04-14T15:33:44.042Z,12.93
2019-04-14T15:36:13.629Z,13.70
2019-04-14T15:38:44.251Z,13.67
2019-04-14T15:41:13.871Z,13.20
2019-04-14T15:43:43.151Z,12.13
2019-04-14T15:46:12.458Z,11.20
2019-04-14T15:48:41.984Z,14.60
2019-04-14T15:51:11.286Z,13.77
2019-04-14T15:53:40.615Z,14.30
2019-04-14T15:56:11.829Z,13.43
2019-04-14T15:58:48.754Z,13.13
2019-04-14T16:01:31.753Z,14.03
2019-04-14T16:04:05.114Z,11.40
2019-04-14T16:06:51.318Z,13.93
2019-04-14T16:09:34.489Z,14.00
2019-04-14T16:12:17.545Z,13.47
2019-04-14T16:14:48.476Z,12.60
2019-04-14T16:17:36.225Z,14.43
2019-04-14T16:20:08.605Z,13.70
2019-04-14T16:22:39.068Z,13.10
2019-04-14T16:25:08.940Z,11.87
2019-04-14T16:27:42.579Z,15.23
2019-04-14T16:30:25.892Z,14.53
2019-04-14T16:33:06.028Z,14.03
2019-04-14T16:35:37.278Z,15.30
2019-04-14T16:38:08.012Z,15.77
2019-04-14T16:40:37.616Z,14.53
2019-04-14T16:43:07.250Z,15.67
2019-04-14T16:45:36.933Z,14.97
2019-04-14T16:48:06.651Z,15.00
2019-04-14T16:50:35.939Z,15.37
2019-04-14T16:53:09.614Z,14.83
2019-04-14T16:55:47.148Z,13.87
2019-04-14T16:58:24.007Z,12.70
2019-04-14T17:00:54.940Z,12.67
2019-04-14T17:03:24.236Z,13.70
2019-04-14T17:05:53.536Z,13.47
2019-04-14T17:08:23.174Z,12.20
2019-04-14T17:10:52.782Z,12.13
2019-04-14T17:13:23.722Z,9.00
2019-04-14T17:16:11.457Z,12.57
2019-04-14T17:18:42.701Z,11.40
2019-04-14T17:21:22.257Z,11.60
2019-04-14T17:23:56.122Z,13.03
2019-04-14T17:26:42.337Z,11.20
2019-04-14T17:29:22.130Z,11.60
2019-04-14T17:31:59.272Z,12.23
2019-04-14T17:34:48.795Z,12.03
2019-04-14T17:37:19.757Z,12.23
2019-04-14T17:39:56.681Z,12.27
2019-04-14T17:42:27.691Z,11.80
2019-04-14T17:45:01.360Z,12.80
2019-04-14T17:47:36.295Z,11.97
2019-04-14T17:50:14.861Z,12.93
2019-04-14T17:52:48.809Z,13.10
2019-04-14T17:55:19.973Z,13.47
2019-04-14T17:58:07.427Z,13.47
2019-04-14T18:00:53.664Z,15.17
2019-04-14T18:03:27.964Z,13.67
2019-04-14T18:06:02.281Z,13.70
2019-04-14T18:08:49.565Z,11.50
2019-04-14T18:11:32.744Z,12.73
2019-04-14T18:14:03.680Z,14.07
2019-04-14T18:16:51.404Z,13.67
2019-04-14T18:19:22.655Z,13.60
2019-04-14T18:21:51.966Z,13.20
2019-04-14T18:24:21.258Z,12.05
2019-04-14T18:26:50.564Z,12.37
2019-04-14T18:29:27.032Z,14.25
2019-04-14T18:32:14.481Z,14.47
2019-04-14T18:34:48.128Z,13.65
2019-04-14T18:37:21.774Z,13.85
2019-04-14T18:40:09.394Z,13.20
2019-04-14T18:42:43.265Z,15.08
2019-04-14T18:45:14.844Z,14.00
2019-04-14T18:47:46.098Z,13.25
2019-04-14T18:50:22.934Z,13.80
2019-04-14T18:52:56.881Z,13.55
2019-04-14T18:55:44.762Z,13.72
2019-04-14T18:58:18.602Z,14.10
2019-04-14T19:00:52.508Z,13.80
2019-04-14T19:03:22.243Z,13.10
2019-04-14T19:05:51.624Z,12.18
2019-04-14T19:08:20.932Z,12.30
2019-04-14T19:11:08.049Z,11.57
2019-04-14T19:13:38.716Z,11.48
2019-04-14T19:16:12.593Z,10.88
2019-04-14T19:18:43.511Z,11.33
2019-04-14T19:21:20.585Z,11.70
2019-04-14T19:23:49.884Z,11.97
2019-04-14T19:26:19.189Z,11.75
2019-04-14T19:28:48.486Z,11.95
2019-04-14T19:31:18.035Z,11.73
2019-04-14T19:33:47.343Z,10.98
2019-04-14T19:36:16.809Z,11.25
2019-04-14T19:38:46.448Z,12.75
2019-04-14T19:41:15.754Z,11.30
2019-04-14T19:43:45.366Z,10.80
2019-04-14T19:46:14.971Z,12.13
2019-04-14T19:48:44.267Z,11.90
2019-04-14T19:51:13.881Z,11.22
2019-04-14T19:53:43.183Z,10.95
2019-04-14T19:56:13.420Z,11.22
2019-04-14T19:58:42.730Z,11.55
2019-04-14T20:01:12.030Z,12.50
2019-04-14T20:03:41.608Z,10.75
2019-04-14T20:06:10.908Z,12.18
2019-04-14T20:08:40.204Z,11.08
2019-04-14T20:11:09.552Z,11.25
2019-04-14T20:13:46.913Z,10.78
2019-04-14T20:16:30.848Z,10.85
2019-04-14T20:19:14.619Z,11.45
2019-04-14T20:22:02.224Z,12.65
2019-04-14T20:24:33.565Z,11.40
2019-04-14T20:27:22.655Z,10.60
2019-04-14T20:29:53.889Z,11.15
2019-04-14T20:32:27.769Z,10.68
2019-04-14T20:34:57.144Z,11.60
2019-04-14T20:37:27.716Z,11.30
2019-04-14T20:39:57.015Z,10.03
2019-04-14T20:42:26.313Z,9.30
2019-04-14T20:44:55.936Z,9.90
2019-04-14T20:47:25.222Z,10.35
2019-04-14T20:49:54.779Z,9.93
2019-04-14T20:52:24.368Z,9.43
2019-04-14T20:54:53.737Z,8.73
2019-04-14T20:57:23.356Z,9.28
2019-04-14T20:59:52.965Z,8.25
2019-04-14T21:02:29.619Z,8.28
2019-04-14T21:05:06.623Z,7.45
2019-04-14T21:07:40.436Z,6.33
2019-04-14T21:10:27.328Z,6.92
2019-04-14T21:12:58.249Z,7.53
2019-04-14T21:15:29.189Z,6.80
2019-04-14T21:18:00.344Z,6.55
2019-04-14T21:20:31.279Z,6.97
2019-04-14T21:23:04.863Z,6.72
2019-04-14T21:25:36.043Z,6.55
2019-04-14T21:28:22.057Z,6.20
2019-04-14T21:30:55.932Z,7.28
2019-04-14T21:33:28.317Z,5.70
2019-04-14T21:36:05.265Z,5.67
2019-04-14T21:38:41.892Z,6.10
2019-04-14T21:41:18.789Z,5.60
2019-04-14T21:43:48.133Z,5.62
2019-04-14T21:46:17.426Z,5.90
2019-04-14T21:48:46.712Z,5.78
2019-04-14T21:51:16.008Z,5.70
2019-04-14T21:53:46.147Z,5.20
2019-04-14T21:56:15.525Z,5.67
2019-04-14T21:58:58.506Z,6.67
2019-04-14T22:01:50.744Z,5.10
2019-04-14T22:04:39.484Z,5.40
2019-04-14T22:07:15.824Z,6.00
2019-04-14T22:09:45.146Z,5.78
2019-04-14T22:12:14.540Z,5.75
2019-04-14T22:14:43.905Z,5.83
2019-04-14T22:17:13.182Z,6.22
2019-04-14T22:19:42.514Z,5.55
2019-04-14T22:22:11.808Z,5.95
2019-04-14T22:24:41.083Z,5.30
2019-04-14T22:27:10.371Z,5.95
2019-04-14T22:29:39.670Z,5.95
2019-04-14T22:32:09.208Z,6.17
2019-04-14T22:34:38.497Z,5.97
2019-04-14T22:37:08.767Z,5.30
2019-04-14T22:39:39.314Z,6.60
2019-04-14T22:42:08.890Z,5.97
2019-04-14T22:44:38.185Z,6.05
2019-04-14T22:47:07.691Z,6.60
2019-04-14T22:49:37.220Z,6.22
2019-04-14T22:52:06.592Z,5.85
2019-04-14T22:54:35.978Z,6.65
2019-04-14T22:57:05.325Z,6.97
2019-04-14T22:59:34.623Z,5.45
2019-04-14T23:02:08.535Z,6.67
2019-04-14T23:04:42.238Z,6.37
2019-04-14T23:07:13.393Z,7.05
2019-04-14T23:09:49.800Z,7.05
2019-04-14T23:12:26.616Z,6.30
2019-04-14T23:15:03.456Z,5.72
2019-04-14T23:17:35.448Z,6.62
2019-04-14T23:20:14.979Z,6.55
2019-04-14T23:22:57.666Z,6.55
2019-04-14T23:25:26.948Z,6.50
2019-04-14T23:27:56.227Z,6.62
2019-04-14T23:30:25.510Z,7.17
2019-04-14T23:32:54.805Z,6.10
2019-04-14T23:35:24.095Z,7.50
2019-04-14T23:37:53.607Z,6.85
2019-04-14T23:40:22.891Z,6.42
2019-04-14T23:42:52.226Z,7.40
2019-04-14T23:45:21.596Z,7.15
2019-04-14T23:47:50.889Z,7.50
2019-04-14T23:50:20.421Z,6.28
2019-04-14T23:52:49.691Z,7.40
2019-04-14T23:55:19.229Z,7.30
2019-04-14T23:57:48.731Z,6.67
